Time;durP1;ratioP1;P1;durP2;ratioP2;P2;SDS_P1;SDS_P2;PMS_P1;PMS_P2;Temp;Humidity;BMP_temperature;BMP_pressure;BME280_temperature;BME280_humidity;BME280_pressure;Samples;Min_cycle;Max_cycle;Signal;HPM_P1;HPM_P2
2023/09/17 00:00:16;;;;;;;2.88;2.50;;;;;;;;;;2086500;28;20037;-81
2023/09/17 00:01:35;;;;;;;5.47;2.92;;;;;;;;;;2087171;28;20021;-81
2023/09/17 00:02:57;;;;;;;5.43;2.83;;;;;;;;;;2084601;28;20064;-81
2023/09/17 00:04:16;;;;;;;7.32;2.85;;;;;;;;;;2088675;28;20410;-81
2023/09/17 00:05:35;;;;;;;7.18;3.35;;;;;;;;;;2085652;28;20037;-81
2023/09/17 00:06:54;;;;;;;5.18;2.80;;;;;;;;;;2086258;28;20029;-81
2023/09/17 00:08:13;;;;;;;3.97;2.58;;;;;;;;;;2087346;28;20106;-81
2023/09/17 00:09:32;;;;;;;4.50;2.60;;;;;;;;;;2088441;28;20551;-80
2023/09/17 00:10:51;;;;;;;4.60;2.42;;;;;;;;;;2084474;28;20116;-81
2023/09/17 00:12:09;;;;;;;5.72;2.60;;;;;;;;;;2086371;28;20399;-81
2023/09/17 00:13:29;;;;;;;4.93;3.13;;;;;;;;;;2088080;28;20056;-80
2023/09/17 00:14:48;;;;;;;3.92;2.90;;;;;;;;;;2087461;28;20025;-81
2023/09/17 00:16:07;;;;;;;8.88;3.55;;;;;;;;;;2084147;28;20037;-81
2023/09/17 00:17:26;;;;;;;10.40;3.30;;;;;;;;;;2088977;28;20521;-81
2023/09/17 00:18:45;;;;;;;4.18;3.35;;;;;;;;;;2088356;28;20041;-81
2023/09/17 00:20:10;;;;;;;6.22;3.13;;;;;;;;;;2087494;28;20033;-81
2023/09/17 00:21:29;;;;;;;3.08;2.78;;;;;;;;;;2093038;28;20025;-80
2023/09/17 00:22:51;;;;;;;5.57;2.53;;;;;;;;;;2094078;28;20025;-80
2023/09/17 00:24:18;;;;;;;12.85;3.03;;;;;;;;;;2087508;28;20036;-81
2023/09/17 00:25:37;;;;;;;5.25;3.10;;;;;;;;;;2087721;28;20025;-80
2023/09/17 00:26:56;;;;;;;6.10;2.78;;;;;;;;;;2079256;28;20022;-81
2023/09/17 00:28:14;;;;;;;4.55;2.80;;;;;;;;;;2085616;28;20076;-80
2023/09/17 00:29:33;;;;;;;3.88;2.70;;;;;;;;;;2085042;28;20589;-81
2023/09/17 00:30:54;;;;;;;5.53;2.47;;;;;;;;;;2081011;28;20449;-80
2023/09/17 00:32:13;;;;;;;3.00;2.65;;;;;;;;;;2075997;28;20341;-81
2023/09/17 00:33:31;;;;;;;5.45;2.78;;;;;;;;;;2084844;28;20029;-80
2023/09/17 00:34:51;;;;;;;4.85;3.17;;;;;;;;;;2086262;28;20029;-81
2023/09/17 00:36:09;;;;;;;4.60;2.35;;;;;;;;;;2087941;28;20025;-80
2023/09/17 00:37:29;;;;;;;4.10;2.95;;;;;;;;;;2088541;28;20037;-80
2023/09/17 00:38:47;;;;;;;5.30;2.53;;;;;;;;;;2081094;28;20036;-81
2023/09/17 00:40:07;;;;;;;4.55;3.08;;;;;;;;;;2080303;28;20033;-81
2023/09/17 00:41:26;;;;;;;4.10;2.78;;;;;;;;;;2079412;28;20033;-81
2023/09/17 00:42:45;;;;;;;4.22;2.67;;;;;;;;;;2078853;28;20025;-81
2023/09/17 00:44:04;;;;;;;2.90;2.60;;;;;;;;;;2077835;28;20025;-81
2023/09/17 00:45:23;;;;;;;6.07;3.03;;;;;;;;;;2081072;28;20029;-80
2023/09/17 00:46:42;;;;;;;6.15;2.97;;;;;;;;;;2085568;28;20478;-81
2023/09/17 00:48:03;;;;;;;4.03;2.88;;;;;;;;;;2080033;28;20046;-81
2023/09/17 00:49:23;;;;;;;4.38;2.40;;;;;;;;;;2077419;28;20045;-80
2023/09/17 00:50:42;;;;;;;4.13;2.97;;;;;;;;;;2078625;28;20030;-81
2023/09/17 00:52:03;;;;;;;5.85;2.78;;;;;;;;;;2085688;28;20021;-80
2023/09/17 00:53:22;;;;;;;5.80;3.03;;;;;;;;;;2089561;28;20021;-80
2023/09/17 00:54:42;;;;;;;5.18;2.88;;;;;;;;;;2079981;28;20493;-80
2023/09/17 00:56:01;;;;;;;6.65;2.75;;;;;;;;;;2084076;28;20179;-80
2023/09/17 00:57:21;;;;;;;2.95;2.67;;;;;;;;;;2087898;28;21050;-79
2023/09/17 00:58:40;;;;;;;3.92;2.75;;;;;;;;;;2087049;28;20486;-80
2023/09/17 01:00:00;;;;;;;6.22;3.05;;;;;;;;;;2095491;28;20020;-80
2023/09/17 01:01:19;;;;;;;4.75;2.53;;;;;;;;;;2084100;28;20028;-80
2023/09/17 01:02:39;;;;;;;8.93;2.50;;;;;;;;;;2081091;28;20037;-80
2023/09/17 01:03:59;;;;;;;4.80;2.47;;;;;;;;;;2080024;28;20030;-79
2023/09/17 01:05:18;;;;;;;2.83;2.22;;;;;;;;;;2086351;28;20073;-80
2023/09/17 01:06:41;;;;;;;2.75;2.50;;;;;;;;;;2088293;28;20025;-80
2023/09/17 01:08:00;;;;;;;5.15;2.42;;;;;;;;;;2096882;28;20028;-80
2023/09/17 01:09:19;;;;;;;6.93;2.97;;;;;;;;;;2087621;28;20111;-80
2023/09/17 01:10:40;;;;;;;3.65;2.50;;;;;;;;;;2086534;28;20028;-79
2023/09/17 01:12:03;;;;;;;5.28;3.08;;;;;;;;;;2080442;28;20026;-80
2023/09/17 01:13:23;;;;;;;2.95;2.60;;;;;;;;;;2086567;28;20478;-80
2023/09/17 01:14:43;;;;;;;4.85;3.03;;;;;;;;;;2085715;28;20037;-80
2023/09/17 01:16:03;;;;;;;3.60;2.65;;;;;;;;;;2087984;28;20029;-80
2023/09/17 01:17:27;;;;;;;3.28;2.42;;;;;;;;;;2080415;28;20037;-80
2023/09/17 01:18:47;;;;;;;4.78;2.97;;;;;;;;;;2080846;28;20033;-80
2023/09/17 01:20:25;;;;;;;4.28;2.55;;;;;;;;;;2080998;28;20414;-80
2023/09/17 01:21:50;;;;;;;2.53;2.30;;;;;;;;;;2079861;28;20030;-80
2023/09/17 01:23:13;;;;;;;3.67;2.75;;;;;;;;;;2087714;28;20032;-80
2023/09/17 01:24:43;;;;;;;4.05;2.80;;;;;;;;;;2095566;28;20045;-79
2023/09/17 01:26:06;;;;;;;4.68;3.17;;;;;;;;;;2088622;28;21016;-80
2023/09/17 01:27:25;;;;;;;3.78;2.95;;;;;;;;;;2087587;28;20484;-80
2023/09/17 01:28:45;;;;;;;5.07;3.00;;;;;;;;;;2080933;28;20029;-80
2023/09/17 01:30:05;;;;;;;3.97;2.92;;;;;;;;;;2083289;28;20105;-80
2023/09/17 01:31:24;;;;;;;3.25;2.60;;;;;;;;;;2092924;28;20100;-79
2023/09/17 01:32:43;;;;;;;5.53;3.10;;;;;;;;;;2088838;28;20037;-80
2023/09/17 01:34:02;;;;;;;5.63;2.53;;;;;;;;;;2090655;28;20033;-79
2023/09/17 01:35:21;;;;;;;3.13;2.70;;;;;;;;;;2090532;28;20032;-80
2023/09/17 01:36:42;;;;;;;4.82;2.35;;;;;;;;;;2084892;28;20426;-80
2023/09/17 01:38:04;;;;;;;5.75;2.70;;;;;;;;;;2087698;28;20056;-80
2023/09/17 01:39:26;;;;;;;10.27;3.03;;;;;;;;;;2092670;28;20020;-80
2023/09/17 01:40:48;;;;;;;4.63;3.00;;;;;;;;;;2095623;28;20569;-80
2023/09/17 01:42:08;;;;;;;3.97;3.22;;;;;;;;;;2095071;28;20336;-80
2023/09/17 01:43:27;;;;;;;2.92;2.47;;;;;;;;;;2083200;28;20112;-80
2023/09/17 01:44:47;;;;;;;4.78;2.88;;;;;;;;;;2085330;28;20021;-81
2023/09/17 01:46:07;;;;;;;3.10;2.50;;;;;;;;;;2087077;28;20037;-80
2023/09/17 01:47:27;;;;;;;2.63;2.28;;;;;;;;;;2086415;28;20041;-80
2023/09/17 01:48:46;;;;;;;4.38;2.63;;;;;;;;;;2095947;28;20424;-80
2023/09/17 01:50:06;;;;;;;4.65;2.47;;;;;;;;;;2084363;28;20470;-80
2023/09/17 01:51:26;;;;;;;3.42;2.35;;;;;;;;;;2084570;28;20060;-80
2023/09/17 01:52:45;;;;;;;4.90;2.97;;;;;;;;;;2088605;28;20068;-80
2023/09/17 01:54:05;;;;;;;3.22;2.42;;;;;;;;;;2086774;28;20037;-80
2023/09/17 01:55:24;;;;;;;3.10;2.42;;;;;;;;;;2095256;28;20477;-80
2023/09/17 01:56:43;;;;;;;5.32;2.60;;;;;;;;;;2087094;28;20025;-80
2023/09/17 01:58:03;;;;;;;4.93;2.75;;;;;;;;;;2087528;28;20029;-80
2023/09/17 01:59:22;;;;;;;5.70;2.75;;;;;;;;;;2092570;28;20025;-80
2023/09/17 02:00:41;;;;;;;3.55;2.13;;;;;;;;;;2086083;28;20025;-80
2023/09/17 02:02:00;;;;;;;3.83;2.78;;;;;;;;;;2091140;28;20247;-80
2023/09/17 02:03:19;;;;;;;7.07;3.25;;;;;;;;;;2092896;28;20529;-80
2023/09/17 02:04:38;;;;;;;6.75;2.88;;;;;;;;;;2092793;28;20028;-80
2023/09/17 02:05:58;;;;;;;5.35;2.88;;;;;;;;;;2087422;28;20040;-80
2023/09/17 02:07:18;;;;;;;3.10;2.28;;;;;;;;;;2087945;28;20033;-80
2023/09/17 02:08:37;;;;;;;3.53;2.70;;;;;;;;;;2091789;28;20033;-80
2023/09/17 02:09:56;;;;;;;2.80;2.40;;;;;;;;;;2092456;28;20060;-80
2023/09/17 02:11:15;;;;;;;4.65;3.00;;;;;;;;;;2091666;28;20469;-80
2023/09/17 02:12:34;;;;;;;3.40;2.22;;;;;;;;;;2085472;28;20033;-80
2023/09/17 02:13:54;;;;;;;4.43;2.63;;;;;;;;;;2084515;28;20489;-80
2023/09/17 02:15:13;;;;;;;3.72;2.25;;;;;;;;;;2089373;28;20493;-80
2023/09/17 02:16:31;;;;;;;3.05;2.75;;;;;;;;;;2087706;28;20033;-80
2023/09/17 02:17:51;;;;;;;4.05;2.58;;;;;;;;;;2093566;28;20115;-80
2023/09/17 02:19:10;;;;;;;4.50;2.55;;;;;;;;;;2089308;28;20025;-80
2023/09/17 02:20:29;;;;;;;3.13;2.58;;;;;;;;;;2084046;28;20133;-80
2023/09/17 02:21:51;;;;;;;3.30;2.50;;;;;;;;;;2090447;28;20024;-80
2023/09/17 02:23:10;;;;;;;2.40;2.20;;;;;;;;;;2097540;28;20032;-80
2023/09/17 02:24:29;;;;;;;4.93;2.30;;;;;;;;;;2086852;28;20658;-80
2023/09/17 02:25:48;;;;;;;3.60;2.78;;;;;;;;;;2085381;28;20489;-80
2023/09/17 02:27:08;;;;;;;3.88;2.60;;;;;;;;;;2093212;28;20099;-80
2023/09/17 02:28:27;;;;;;;6.70;2.80;;;;;;;;;;2097253;28;20481;-80
2023/09/17 02:29:46;;;;;;;2.88;2.40;;;;;;;;;;2088972;28;20041;-80
2023/09/17 02:31:06;;;;;;;5.38;2.80;;;;;;;;;;2094912;28;20033;-79
2023/09/17 02:32:26;;;;;;;3.30;2.97;;;;;;;;;;2095310;28;20393;-80
2023/09/17 02:33:44;;;;;;;4.60;2.63;;;;;;;;;;2098329;28;20033;-79
2023/09/17 02:35:07;;;;;;;3.30;2.33;;;;;;;;;;2095976;28;20032;-80
2023/09/17 02:36:26;;;;;;;2.80;2.58;;;;;;;;;;2098908;28;20124;-80
2023/09/17 02:37:45;;;;;;;2.58;2.38;;;;;;;;;;2099699;28;20033;-80
2023/09/17 02:39:06;;;;;;;4.18;2.42;;;;;;;;;;2102188;28;20024;-80
2023/09/17 02:40:25;;;;;;;4.70;2.20;;;;;;;;;;2090931;28;20021;-80
2023/09/17 02:41:44;;;;;;;2.78;2.50;;;;;;;;;;2092775;28;20025;-80
2023/09/17 02:43:03;;;;;;;6.28;2.40;;;;;;;;;;2097728;28;20020;-80
2023/09/17 02:44:22;;;;;;;4.05;2.72;;;;;;;;;;2097415;28;20030;-80
2023/09/17 02:45:41;;;;;;;2.30;2.13;;;;;;;;;;2091022;28;20025;-80
2023/09/17 02:47:02;;;;;;;5.40;2.70;;;;;;;;;;2090003;28;20017;-80
2023/09/17 02:48:21;;;;;;;4.18;2.50;;;;;;;;;;2096704;28;20032;-80
2023/09/17 02:49:40;;;;;;;4.03;2.67;;;;;;;;;;2086610;28;20437;-80
2023/09/17 02:50:59;;;;;;;3.08;2.40;;;;;;;;;;2087205;28;20037;-80
2023/09/17 02:52:18;;;;;;;3.33;2.78;;;;;;;;;;2096203;28;20033;-80
2023/09/17 02:53:37;;;;;;;2.92;2.58;;;;;;;;;;2100150;28;20025;-80
2023/09/17 02:54:57;;;;;;;2.50;2.30;;;;;;;;;;2088721;28;20024;-80
2023/09/17 02:56:15;;;;;;;2.83;2.20;;;;;;;;;;2087123;28;20021;-79
2023/09/17 02:57:34;;;;;;;2.55;2.35;;;;;;;;;;2092799;28;20028;-80
2023/09/17 02:58:53;;;;;;;3.67;2.40;;;;;;;;;;2102949;28;20020;-80
2023/09/17 03:00:13;;;;;;;2.97;2.30;;;;;;;;;;2101253;28;20035;-80
2023/09/17 03:01:32;;;;;;;3.75;2.40;;;;;;;;;;2098457;28;20037;-80
2023/09/17 03:02:54;;;;;;;3.17;2.58;;;;;;;;;;2099965;28;20059;-80
2023/09/17 03:04:13;;;;;;;2.13;2.03;;;;;;;;;;2101098;28;20021;-79
2023/09/17 03:05:32;;;;;;;3.08;2.40;;;;;;;;;;2100249;28;20020;-80
2023/09/17 03:06:51;;;;;;;2.67;2.20;;;;;;;;;;2098748;28;20016;-80
2023/09/17 03:08:10;;;;;;;5.38;2.53;;;;;;;;;;2089546;28;20033;-79
2023/09/17 03:09:29;;;;;;;2.60;2.40;;;;;;;;;;2090789;28;20405;-80
2023/09/17 03:10:56;;;;;;;4.80;2.40;;;;;;;;;;2088243;28;20021;-80
2023/09/17 03:12:15;;;;;;;5.07;2.63;;;;;;;;;;2091586;28;20056;-80
2023/09/17 03:13:34;;;;;;;3.45;2.20;;;;;;;;;;2096710;28;20489;-80
2023/09/17 03:14:53;;;;;;;3.40;2.33;;;;;;;;;;2098072;28;20041;-80
2023/09/17 03:16:15;;;;;;;2.90;2.65;;;;;;;;;;2099352;28;20028;-80
2023/09/17 03:17:37;;;;;;;2.78;2.28;;;;;;;;;;2089494;28;20033;-80
2023/09/17 03:18:56;;;;;;;2.97;2.53;;;;;;;;;;2087258;28;20029;-80
2023/09/17 03:20:18;;;;;;;3.88;2.58;;;;;;;;;;2090347;28;20045;-80
2023/09/17 03:21:40;;;;;;;2.75;2.55;;;;;;;;;;2096789;28;20029;-80
2023/09/17 03:23:04;;;;;;;3.65;2.50;;;;;;;;;;2099217;28;20024;-80
2023/09/17 03:24:23;;;;;;;4.10;2.83;;;;;;;;;;2096472;28;20493;-80
2023/09/17 03:25:42;;;;;;;2.63;2.38;;;;;;;;;;2098632;28;20558;-80
2023/09/17 03:27:04;;;;;;;4.72;2.45;;;;;;;;;;2098084;28;20064;-80
2023/09/17 03:28:23;;;;;;;4.10;2.60;;;;;;;;;;2088140;28;20049;-80
2023/09/17 03:29:42;;;;;;;4.35;2.72;;;;;;;;;;2094875;28;20377;-80
2023/09/17 03:31:01;;;;;;;4.68;2.40;;;;;;;;;;2098682;28;20036;-80
2023/09/17 03:32:20;;;;;;;4.47;2.55;;;;;;;;;;2096677;28;20420;-80
2023/09/17 03:33:39;;;;;;;2.55;2.35;;;;;;;;;;2092015;28;20025;-80
2023/09/17 03:34:58;;;;;;;3.47;3.15;;;;;;;;;;2091649;28;20037;-80
2023/09/17 03:36:16;;;;;;;4.20;2.38;;;;;;;;;;2094807;28;20063;-80
2023/09/17 03:37:35;;;;;;;4.10;2.15;;;;;;;;;;2090278;28;20028;-80
2023/09/17 03:38:54;;;;;;;5.25;2.30;;;;;;;;;;2084856;28;20413;-80
2023/09/17 03:40:14;;;;;;;5.07;2.38;;;;;;;;;;2090980;28;20111;-80
2023/09/17 03:41:33;;;;;;;2.78;2.50;;;;;;;;;;2096370;28;20060;-80
2023/09/17 03:42:52;;;;;;;3.00;2.70;;;;;;;;;;2092359;28;20075;-79
2023/09/17 03:44:11;;;;;;;2.83;2.55;;;;;;;;;;2097815;28;20051;-80
2023/09/17 03:45:31;;;;;;;2.92;2.60;;;;;;;;;;2090945;28;20495;-80
2023/09/17 03:46:50;;;;;;;4.28;2.67;;;;;;;;;;2087193;28;20029;-80
2023/09/17 03:48:09;;;;;;;2.83;2.10;;;;;;;;;;2086188;28;20107;-80
2023/09/17 03:49:28;;;;;;;3.25;2.53;;;;;;;;;;2095998;28;20478;-80
2023/09/17 03:50:47;;;;;;;2.47;2.15;;;;;;;;;;2082205;28;20526;-80
2023/09/17 03:52:07;;;;;;;3.95;2.50;;;;;;;;;;2088121;28;20500;-80
2023/09/17 03:53:26;;;;;;;2.80;2.35;;;;;;;;;;2089062;28;20028;-80
2023/09/17 03:54:45;;;;;;;3.97;2.67;;;;;;;;;;2091105;28;20029;-80
2023/09/17 03:56:04;;;;;;;4.50;2.80;;;;;;;;;;2087272;28;20021;-80
2023/09/17 03:57:23;;;;;;;2.80;2.60;;;;;;;;;;2089751;28;20033;-80
2023/09/17 03:58:43;;;;;;;2.83;2.60;;;;;;;;;;2087894;28;20033;-80
2023/09/17 04:00:21;;;;;;;2.63;2.42;;;;;;;;;;2094864;28;20024;-79
2023/09/17 04:01:41;;;;;;;3.10;2.53;;;;;;;;;;2089857;28;20052;-80
2023/09/17 04:03:04;;;;;;;5.60;3.50;;;;;;;;;;2087549;28;20024;-80
2023/09/17 04:04:23;;;;;;;5.50;3.00;;;;;;;;;;2092272;28;20103;-79
2023/09/17 04:05:42;;;;;;;4.57;3.60;;;;;;;;;;2090982;28;20389;-80
2023/09/17 04:07:03;;;;;;;5.57;3.50;;;;;;;;;;2087307;28;20462;-79
2023/09/17 04:08:22;;;;;;;5.38;3.33;;;;;;;;;;2095864;28;20485;-80
2023/09/17 04:09:42;;;;;;;5.00;3.25;;;;;;;;;;2099878;28;20028;-79
2023/09/17 04:11:01;;;;;;;5.10;2.88;;;;;;;;;;2093937;28;20103;-80
2023/09/17 04:12:20;;;;;;;4.65;3.45;;;;;;;;;;2089166;28;20475;-79
2023/09/17 04:13:39;;;;;;;3.40;3.10;;;;;;;;;;2096795;28;20025;-80
2023/09/17 04:15:16;;;;;;;3.30;3.00;;;;;;;;;;2099583;28;20016;-80
2023/09/17 04:16:36;;;;;;;3.30;2.60;;;;;;;;;;2087832;28;20033;-80
2023/09/17 04:17:55;;;;;;;2.50;2.30;;;;;;;;;;2103263;28;20024;-80
2023/09/17 04:19:15;;;;;;;4.57;2.33;;;;;;;;;;2101478;28;20032;-80
2023/09/17 04:20:35;;;;;;;1.95;1.80;;;;;;;;;;2089387;28;20033;-80
2023/09/17 04:21:54;;;;;;;2.13;1.50;;;;;;;;;;2096637;28;20028;-80
2023/09/17 04:23:13;;;;;;;1.88;1.00;;;;;;;;;;2098659;28;20037;-80
2023/09/17 04:24:31;;;;;;;3.22;1.10;;;;;;;;;;2087949;28;20041;-80
2023/09/17 04:25:50;;;;;;;1.67;0.73;;;;;;;;;;2094909;28;20020;-80
2023/09/17 04:27:11;;;;;;;3.97;0.70;;;;;;;;;;2088207;28;20037;-80
2023/09/17 04:28:30;;;;;;;0.95;0.50;;;;;;;;;;2084942;28;20119;-80
2023/09/17 04:29:50;;;;;;;0.60;0.60;;;;;;;;;;2091132;28;20501;-80
2023/09/17 04:31:09;;;;;;;1.13;0.40;;;;;;;;;;2094069;28;20025;-80
2023/09/17 04:32:28;;;;;;;0.45;0.20;;;;;;;;;;2089288;28;20033;-79
2023/09/17 04:33:47;;;;;;;0.30;0.22;;;;;;;;;;2093759;28;20037;-80
2023/09/17 04:35:07;;;;;;;0.10;0.10;;;;;;;;;;2094547;28;20037;-80
2023/09/17 04:36:26;;;;;;;9.07;0.57;;;;;;;;;;2096464;28;20476;-80
2023/09/17 04:37:46;;;;;;;0.20;0.20;;;;;;;;;;2096259;28;20050;-80
2023/09/17 04:39:09;;;;;;;0.68;0.40;;;;;;;;;;2088751;28;20024;-80
2023/09/17 04:40:28;;;;;;;0.43;0.20;;;;;;;;;;2083799;28;20033;-80
2023/09/17 04:41:47;;;;;;;0.43;0.20;;;;;;;;;;2093371;28;20318;-80
2023/09/17 04:43:06;;;;;;;0.30;0.30;;;;;;;;;;2090370;28;20065;-80
2023/09/17 04:44:25;;;;;;;0.20;0.20;;;;;;;;;;2087633;28;20119;-80
2023/09/17 04:45:43;;;;;;;1.10;0.20;;;;;;;;;;2095282;28;20071;-79
2023/09/17 04:47:03;;;;;;;0.20;0.13;;;;;;;;;;2087322;28;20056;-80
2023/09/17 04:48:21;;;;;;;1.25;0.13;;;;;;;;;;2090972;28;20486;-80
2023/09/17 04:49:41;;;;;;;0.35;0.20;;;;;;;;;;2095962;28;20028;-80
2023/09/17 04:51:00;;;;;;;0.10;0.10;;;;;;;;;;2092323;28;20025;-80
2023/09/17 04:52:18;;;;;;;0.15;0.10;;;;;;;;;;2093596;28;20380;-80
2023/09/17 04:53:37;;;;;;;0.10;0.10;;;;;;;;;;2089659;28;20028;-80
2023/09/17 04:54:56;;;;;;;0.52;0.30;;;;;;;;;;2089896;28;20065;-80
2023/09/17 04:56:16;;;;;;;1.17;0.10;;;;;;;;;;2091312;28;20025;-80
2023/09/17 04:57:35;;;;;;;0.10;0.10;;;;;;;;;;2096681;28;20112;-80
2023/09/17 04:58:54;;;;;;;0.50;0.10;;;;;;;;;;2096526;28;20025;-80
2023/09/17 05:00:13;;;;;;;0.88;0.10;;;;;;;;;;2086616;28;20048;-80
2023/09/17 05:01:33;;;;;;;0.57;0.20;;;;;;;;;;2087103;28;20033;-80
2023/09/17 05:02:52;;;;;;;0.15;0.10;;;;;;;;;;2091157;28;20029;-80
2023/09/17 05:04:11;;;;;;;0.45;0.05;;;;;;;;;;2090760;28;20418;-80
2023/09/17 05:05:30;;;;;;;0.95;0.20;;;;;;;;;;2092752;28;20036;-80
2023/09/17 05:06:49;;;;;;;0.10;0.10;;;;;;;;;;2087803;28;20033;-80
2023/09/17 05:08:09;;;;;;;1.25;0.10;;;;;;;;;;2093250;28;20025;-80
2023/09/17 05:09:28;;;;;;;0.17;0.10;;;;;;;;;;2087205;28;20025;-80
2023/09/17 05:10:47;;;;;;;0.20;0.10;;;;;;;;;;2092006;28;20040;-80
2023/09/17 05:12:06;;;;;;;0.40;0.10;;;;;;;;;;2095485;28;20448;-80
2023/09/17 05:13:25;;;;;;;1.08;0.20;;;;;;;;;;2095823;28;20016;-79
2023/09/17 05:14:44;;;;;;;0.47;0.10;;;;;;;;;;2095568;28;20024;-80
2023/09/17 05:16:03;;;;;;;0.95;0.10;;;;;;;;;;2091212;28;20470;-80
2023/09/17 05:17:22;;;;;;;0.20;0.03;;;;;;;;;;2089797;28;20413;-80
2023/09/17 05:18:41;;;;;;;0.17;0.00;;;;;;;;;;2087075;28;20025;-80
2023/09/17 05:20:00;;;;;;;2.00;0.10;;;;;;;;;;2083785;28;20489;-80
2023/09/17 05:21:19;;;;;;;1.30;0.10;;;;;;;;;;2081301;28;20029;-80
2023/09/17 05:22:39;;;;;;;1.55;0.30;;;;;;;;;;2085173;28;20025;-79
2023/09/17 05:23:58;;;;;;;0.50;0.10;;;;;;;;;;2089785;28;20044;-79
2023/09/17 05:25:17;;;;;;;0.15;0.00;;;;;;;;;;2085146;28;20033;-79
2023/09/17 05:26:35;;;;;;;0.45;0.00;;;;;;;;;;2095185;28;20420;-79
2023/09/17 05:27:55;;;;;;;1.45;0.20;;;;;;;;;;2090945;28;20119;-80
2023/09/17 05:29:16;;;;;;;0.65;0.20;;;;;;;;;;2091461;28;20100;-80
2023/09/17 05:30:35;;;;;;;0.80;0.10;;;;;;;;;;2095417;28;20033;-79
2023/09/17 05:31:54;;;;;;;0.20;0.00;;;;;;;;;;2090430;28;20510;-80
2023/09/17 05:33:13;;;;;;;0.70;0.10;;;;;;;;;;2102321;28;20489;-79
2023/09/17 05:34:32;;;;;;;0.93;0.20;;;;;;;;;;2094495;28;20029;-80
2023/09/17 05:35:56;;;;;;;0.17;0.00;;;;;;;;;;2094168;28;20033;-80
2023/09/17 05:37:16;;;;;;;0.32;0.08;;;;;;;;;;2096946;28;20396;-79
2023/09/17 05:38:36;;;;;;;1.17;0.10;;;;;;;;;;2095427;28;20017;-81
2023/09/17 05:39:55;;;;;;;0.82;0.20;;;;;;;;;;2089924;28;20029;-81
2023/09/17 05:41:15;;;;;;;0.30;0.20;;;;;;;;;;2093161;28;20036;-81
2023/09/17 05:42:34;;;;;;;0.10;0.10;;;;;;;;;;2090694;28;20459;-81
2023/09/17 05:43:55;;;;;;;0.15;0.15;;;;;;;;;;2088463;28;20037;-81
2023/09/17 05:45:14;;;;;;;0.38;0.22;;;;;;;;;;2086619;28;20068;-81
2023/09/17 05:46:33;;;;;;;1.02;0.20;;;;;;;;;;2086542;28;20036;-81
2023/09/17 05:47:52;;;;;;;0.20;0.20;;;;;;;;;;2092250;28;20028;-81
2023/09/17 05:49:11;;;;;;;1.33;0.20;;;;;;;;;;2096355;28;20056;-80
2023/09/17 05:50:30;;;;;;;0.50;0.17;;;;;;;;;;2094603;28;20413;-81
2023/09/17 05:51:49;;;;;;;0.73;0.20;;;;;;;;;;2094506;28;20159;-81
2023/09/17 05:53:08;;;;;;;0.20;0.10;;;;;;;;;;2097331;28;20021;-81
2023/09/17 05:54:27;;;;;;;0.10;0.10;;;;;;;;;;2087113;28;20024;-80
2023/09/17 05:55:46;;;;;;;2.08;0.13;;;;;;;;;;2080219;28;20053;-81
2023/09/17 05:57:05;;;;;;;0.30;0.20;;;;;;;;;;2082215;28;20025;-81
2023/09/17 05:58:24;;;;;;;0.30;0.20;;;;;;;;;;2086020;28;20025;-82
2023/09/17 05:59:43;;;;;;;0.63;0.10;;;;;;;;;;2091657;28;20024;-81
2023/09/17 06:01:04;;;;;;;0.60;0.15;;;;;;;;;;2094532;28;20033;-81
2023/09/17 06:02:23;;;;;;;1.02;0.10;;;;;;;;;;2094035;28;20021;-82
2023/09/17 06:03:42;;;;;;;0.22;0.20;;;;;;;;;;2096971;28;20159;-82
2023/09/17 06:05:03;;;;;;;0.90;0.22;;;;;;;;;;2088873;28;20060;-81
2023/09/17 06:06:22;;;;;;;0.75;0.10;;;;;;;;;;2093008;28;20032;-82
2023/09/17 06:07:40;;;;;;;0.93;0.10;;;;;;;;;;2088955;28;20029;-82
2023/09/17 06:08:59;;;;;;;0.63;0.08;;;;;;;;;;2085834;28;20449;-82
2023/09/17 06:10:18;;;;;;;0.25;0.20;;;;;;;;;;2088976;28;20024;-81
2023/09/17 06:11:37;;;;;;;0.50;0.20;;;;;;;;;;2098463;28;20505;-81
2023/09/17 06:12:57;;;;;;;0.63;0.10;;;;;;;;;;2089943;28;20527;-82
2023/09/17 06:14:16;;;;;;;0.03;0.00;;;;;;;;;;2094742;28;20036;-81
2023/09/17 06:15:35;;;;;;;0.52;0.10;;;;;;;;;;2096199;28;20049;-81
2023/09/17 06:16:57;;;;;;;0.88;0.10;;;;;;;;;;2090218;28;20036;-81
2023/09/17 06:18:19;;;;;;;0.10;0.10;;;;;;;;;;2085456;28;20152;-81
2023/09/17 06:19:38;;;;;;;0.85;0.10;;;;;;;;;;2094650;28;20016;-82
2023/09/17 06:20:57;;;;;;;0.93;0.15;;;;;;;;;;2098302;28;20013;-81
2023/09/17 06:22:16;;;;;;;1.73;0.28;;;;;;;;;;2090771;28;20285;-82
2023/09/17 06:23:35;;;;;;;0.20;0.10;;;;;;;;;;2093990;28;20505;-82
2023/09/17 06:24:57;;;;;;;0.15;0.05;;;;;;;;;;2095671;28;20067;-81
2023/09/17 06:26:16;;;;;;;2.17;0.10;;;;;;;;;;2089971;28;20063;-82
2023/09/17 06:27:35;;;;;;;1.33;0.10;;;;;;;;;;2091062;28;20032;-81
2023/09/17 06:28:54;;;;;;;0.55;0.20;;;;;;;;;;2089194;28;20493;-81
2023/09/17 06:30:14;;;;;;;2.35;0.43;;;;;;;;;;2083897;28;20497;-82
2023/09/17 06:31:32;;;;;;;1.17;0.30;;;;;;;;;;2094135;28;20036;-81
2023/09/17 06:32:52;;;;;;;0.28;0.22;;;;;;;;;;2087151;28;20028;-81
2023/09/17 06:34:11;;;;;;;0.10;0.10;;;;;;;;;;2083957;28;20447;-81
2023/09/17 06:35:30;;;;;;;0.88;0.10;;;;;;;;;;2094016;28;20024;-81
2023/09/17 06:36:50;;;;;;;0.47;0.10;;;;;;;;;;2092399;28;20028;-82
2023/09/17 06:38:08;;;;;;;0.65;0.10;;;;;;;;;;2092549;28;20032;-82
2023/09/17 06:39:27;;;;;;;0.13;0.10;;;;;;;;;;2090310;28;20032;-82
2023/09/17 06:40:46;;;;;;;1.27;0.20;;;;;;;;;;2092723;28;20210;-81
2023/09/17 06:42:05;;;;;;;2.05;0.15;;;;;;;;;;2085076;28;20021;-81
2023/09/17 06:43:24;;;;;;;1.08;0.20;;;;;;;;;;2082785;28;20100;-81
2023/09/17 06:44:43;;;;;;;0.73;0.20;;;;;;;;;;2086497;28;20107;-81
2023/09/17 06:46:12;;;;;;;0.63;0.28;;;;;;;;;;2087799;28;20024;-81
2023/09/17 06:47:34;;;;;;;3.05;0.30;;;;;;;;;;2105357;28;20028;-80
2023/09/17 06:48:53;;;;;;;0.52;0.20;;;;;;;;;;2102010;28;20024;-81
2023/09/17 06:50:13;;;;;;;0.15;0.10;;;;;;;;;;2097529;28;20028;-81
2023/09/17 06:51:32;;;;;;;1.20;0.10;;;;;;;;;;2091401;28;20632;-81
2023/09/17 06:52:50;;;;;;;0.22;0.13;;;;;;;;;;2091700;28;20036;-81
2023/09/17 06:54:10;;;;;;;1.65;0.20;;;;;;;;;;2093277;28;20029;-84
2023/09/17 06:55:30;;;;;;;1.58;0.30;;;;;;;;;;2097199;28;20032;-87
2023/09/17 06:56:49;;;;;;;1.35;0.20;;;;;;;;;;2086124;28;20025;-86
2023/09/17 06:58:08;;;;;;;1.55;0.30;;;;;;;;;;2084259;28;20018;-85
2023/09/17 06:59:28;;;;;;;0.52;0.20;;;;;;;;;;2090820;28;20017;-86
2023/09/17 07:00:47;;;;;;;0.63;0.20;;;;;;;;;;2095357;28;20040;-86
2023/09/17 07:02:06;;;;;;;1.00;0.10;;;;;;;;;;2095808;28;21381;-87
2023/09/17 07:03:28;;;;;;;2.55;0.30;;;;;;;;;;2090923;28;20026;-85
2023/09/17 07:04:52;;;;;;;1.35;0.20;;;;;;;;;;2084007;28;20492;-87
2023/09/17 07:06:11;;;;;;;;;;;;;;;;;;2099106;28;20103;-86
2023/09/17 07:07:48;;;;;;;0.57;0.20;;;;;;;;;;2083064;28;19955;-87
2023/09/17 07:09:07;;;;;;;2.50;0.45;;;;;;;;;;2087083;28;20116;-85
2023/09/17 07:10:29;;;;;;;1.52;0.40;;;;;;;;;;2084394;28;20028;-85
2023/09/17 07:11:51;;;;;;;4.00;0.38;;;;;;;;;;2092466;28;20029;-85
2023/09/17 07:13:13;;;;;;;2.08;0.43;;;;;;;;;;2092143;28;20583;-84
2023/09/17 07:14:32;;;;;;;2.53;0.32;;;;;;;;;;2093569;28;20021;-84
2023/09/17 07:15:51;;;;;;;2.92;0.45;;;;;;;;;;2089423;28;20096;-84
2023/09/17 07:17:11;;;;;;;0.75;0.20;;;;;;;;;;2082616;28;20036;-84
2023/09/17 07:18:31;;;;;;;0.40;0.20;;;;;;;;;;2087987;28;20021;-84
2023/09/17 07:19:50;;;;;;;2.50;0.50;;;;;;;;;;2086546;28;20029;-83
2023/09/17 07:21:13;;;;;;;1.17;0.40;;;;;;;;;;2094792;28;20025;-84
2023/09/17 07:22:32;;;;;;;3.45;0.40;;;;;;;;;;2087445;28;20029;-85
2023/09/17 07:23:52;;;;;;;1.38;0.40;;;;;;;;;;2088059;28;20703;-85
2023/09/17 07:25:11;;;;;;;1.10;0.50;;;;;;;;;;2087327;28;20109;-84
2023/09/17 07:26:30;;;;;;;3.50;0.47;;;;;;;;;;2091259;28;20020;-84
2023/09/17 07:27:49;;;;;;;0.10;0.10;;;;;;;;;;2087701;28;20044;-85
2023/09/17 07:29:08;;;;;;;1.17;0.22;;;;;;;;;;2087123;28;20017;-83
2023/09/17 07:30:27;;;;;;;0.68;0.40;;;;;;;;;;2092244;28;20040;-84
2023/09/17 07:31:49;;;;;;;1.88;0.40;;;;;;;;;;2096461;28;20060;-84
2023/09/17 07:33:08;;;;;;;3.63;0.70;;;;;;;;;;2096228;28;20877;-84
2023/09/17 07:34:27;;;;;;;1.55;0.30;;;;;;;;;;2090470;28;20032;-84
2023/09/17 07:35:47;;;;;;;2.03;0.55;;;;;;;;;;2091540;28;20037;-85
2023/09/17 07:37:06;;;;;;;3.28;0.50;;;;;;;;;;2096425;28;20024;-84
2023/09/17 07:38:25;;;;;;;1.02;0.50;;;;;;;;;;2097729;28;20025;-84
2023/09/17 07:39:46;;;;;;;0.57;0.32;;;;;;;;;;2099118;28;20024;-83
2023/09/17 07:41:17;;;;;;;1.60;0.30;;;;;;;;;;2094971;28;20528;-84
2023/09/17 07:42:41;;;;;;;0.68;0.30;;;;;;;;;;2096647;28;20028;-83
2023/09/17 07:44:01;;;;;;;0.75;0.40;;;;;;;;;;2089799;28;20116;-84
2023/09/17 07:45:20;;;;;;;1.10;0.40;;;;;;;;;;2084963;28;20059;-84
2023/09/17 07:46:45;;;;;;;0.98;0.38;;;;;;;;;;2085838;28;20037;-86
2023/09/17 07:48:04;;;;;;;3.78;0.60;;;;;;;;;;2093076;28;20028;-84
2023/09/17 07:49:27;;;;;;;2.28;0.40;;;;;;;;;;2089058;28;20037;-85
2023/09/17 07:50:58;;;;;;;2.75;0.65;;;;;;;;;;2090669;28;20040;-86
2023/09/17 07:52:17;;;;;;;2.08;0.43;;;;;;;;;;2095732;28;20020;-83
2023/09/17 07:53:36;;;;;;;4.57;0.55;;;;;;;;;;2088337;28;20028;-85
2023/09/17 07:54:55;;;;;;;2.08;0.60;;;;;;;;;;2084393;28;20013;-84
2023/09/17 07:56:15;;;;;;;4.85;0.73;;;;;;;;;;2087544;28;20060;-84
2023/09/17 07:57:36;;;;;;;1.02;0.50;;;;;;;;;;2083614;28;20029;-85
2023/09/17 07:58:55;;;;;;;2.05;0.45;;;;;;;;;;2086807;28;20032;-84